Latest Weather Observations for Coffs Harbour

IDN60801

Issued at 7:05 pm EDT Saturday 29 November 2014 (issued every 30 minutes, with the page automatically refreshed every 10 minutes)

About weather observations | Map of weather stations | Latest weather observations for NSW | Other Formats
Station Details ID: 059040 Name: COFFS HARBOUR MO Lat: -30.31 Lon: 153.12 Height: 5.0 m
Data from the previous 72 hours. | See also: Recent months at Coffs Harbour
Date/Time
EDT
Temp
°C
App
Temp
°C
Dew
Point
Rel
Hum
%
Delta-T
°C
Wind Press
QNH
hPa
Press
MSL
hPa
Rain
since 9 am
mm
Dir
 
Spd
km/h
Gust
km/h
Spd
kts
Gust
kts
29/07:00pm 22.1 17.7 13.0 56 5.2 NNE 28 37 15 20 1016.7 - 0.2
29/06:30pm 22.6 17.9 13.2 55 5.4 NNE 30 37 16 20 1016.6 - 0.2
29/06:00pm 22.9 19.0 14.4 58 5.0 NNE 28 37 15 20 1016.4 1016.5 0.2
29/05:30pm 23.1 18.4 14.4 58 5.1 NNE 32 44 17 24 1016.0 - 0.2
29/05:00pm 23.3 18.5 14.5 57 5.2 NNE 33 43 18 23 1016.1 - 0.2
29/04:30pm 23.4 18.2 14.6 57 5.2 NNE 35 46 19 25 1016.3 - 0.2
29/04:00pm 23.5 18.3 14.5 57 5.3 NNE 35 43 19 23 1016.7 - 0.2
29/03:30pm 23.5 18.8 14.3 56 5.4 NNE 32 43 17 23 1016.9 - 0.2
29/03:00pm 23.7 19.0 14.8 57 5.3 NE 33 43 18 23 1017.1 1017.2 0.2
29/02:30pm 24.1 20.2 15.4 58 5.2 NE 30 39 16 21 1017.3 - 0.2
29/02:00pm 24.3 19.7 14.7 55 5.7 NNE 32 41 17 22 1017.7 - 0.2
29/01:30pm 23.7 19.0 14.2 55 5.6 NE 32 39 17 21 1018.1 - 0.2
29/01:00pm 24.0 20.4 14.1 54 5.8 NNE 26 35 14 19 1018.4 - 0.2
29/12:30pm 23.9 20.0 13.4 51 6.1 NE 26 35 14 19 1018.9 - 0.2
29/12:00pm 24.4 21.0 14.8 55 5.7 NE 26 32 14 17 1019.5 1019.6 0.2
29/11:30am 24.4 21.3 14.4 53 5.9 NE 24 32 13 17 1019.7 - 0.2
29/11:00am 23.1 19.9 14.2 57 5.2 NE 24 30 13 16 1020.0 - 0.2
29/10:30am 22.7 20.2 14.1 58 5.0 NE 20 26 11 14 1020.3 - 0.2
29/10:00am 23.1 21.2 15.2 61 4.7 NNE 19 26 10 14 1020.5 - 0.2
29/09:30am 22.8 20.9 14.1 58 5.1 N 17 22 9 12 1020.5 - 0.0
29/09:00am 22.3 21.1 15.0 63 4.3 N 15 20 8 11 1020.5 1020.6 1.4
29/08:30am 23.5 21.9 15.1 59 5.0 N 17 26 9 14 1020.5 - 1.4
29/08:00am 22.0 22.0 15.3 65 4.0 N 9 11 5 6 1020.5 - 1.4
29/07:30am 20.6 21.4 16.3 76 2.6 NW 7 9 4 5 1020.3 - 1.4
29/07:00am 19.6 22.0 17.0 85 1.6 CALM 0 7 0 4 1019.9 - 1.4
29/06:30am 18.4 21.0 17.6 95 0.5 CALM 0 0 0 0 1019.7 - 1.4
29/06:00am 17.9 20.4 17.2 96 0.4 CALM 0 0 0 0 1019.5 1019.6 1.4
29/05:30am 17.7 18.7 16.9 95 0.5 NW 7 7 4 4 1019.4 - 1.4
29/05:00am 17.5 19.8 16.7 95 0.5 CALM 0 0 0 0 1019.3 - 1.4
29/04:30am 16.8 18.8 15.9 94 0.5 CALM 0 0 0 0 1019.0 - 1.4
29/04:00am 17.2 19.4 16.4 95 0.5 CALM 0 0 0 0 1019.0 - 1.4
29/03:30am 17.6 19.8 16.4 93 0.7 CALM 0 0 0 0 1019.1 - 1.4
29/03:00am 18.4 20.8 17.1 92 0.8 CALM 0 0 0 0 1019.4 1019.5 1.4
29/02:30am 18.7 19.8 17.0 90 1.0 NW 7 7 4 4 1019.5 - 1.4
29/02:00am 19.1 20.6 17.6 91 0.9 WNW 6 7 3 4 1019.7 - 1.4
29/01:30am 19.4 21.3 17.6 89 1.1 NW 4 9 2 5 1020.1 - 1.4
29/01:00am 19.5 22.2 17.7 89 1.1 CALM 0 0 0 0 1020.5 - 1.4
29/12:30am 19.8 21.6 17.3 85 1.5 NNW 4 7 2 4 1020.8 - 1.4
29/12:00am 20.2 20.3 15.6 75 2.7 NNE 9 13 5 7 1021.2 1021.3 1.4
 
Date/Time
EDT
Temp
°C
App
Temp
°C
Dew
Point
Rel
Hum
%
Delta-T
°C
Wind Press
QNH
hPa
Press
MSL
hPa
Rain
since 9 am
mm
Dir
 
Spd
km/h
Gust
km/h
Spd
kts
Gust
kts
28/11:30pm 20.6 20.2 15.2 71 3.2 NE 11 15 6 8 1021.3 - 1.4
28/11:00pm 20.7 20.7 15.3 71 3.2 NE 9 15 5 8 1021.4 - 1.4
28/10:30pm 20.7 20.0 15.3 71 3.2 ENE 13 17 7 9 1021.4 - 1.4
28/10:00pm 20.7 20.0 15.3 71 3.2 ENE 13 20 7 11 1021.3 - 1.4
28/09:30pm 20.7 19.6 15.3 71 3.2 ENE 15 19 8 10 1021.2 - 1.4
28/09:00pm 20.8 19.4 15.6 72 3.1 ENE 17 22 9 12 1020.9 1021.0 1.4
28/08:30pm 20.6 20.1 15.9 74 2.8 ENE 13 17 7 9 1020.7 - 1.4
28/08:00pm 19.7 20.8 17.9 89 1.1 ENE 9 13 5 7 1020.7 - 1.4
28/07:30pm 20.2 20.7 17.4 84 1.7 NE 11 13 6 7 1020.6 - 1.4
28/07:00pm 20.4 21.4 17.8 85 1.6 NE 9 13 5 7 1020.6 - 1.4
28/06:30pm 20.6 20.6 17.1 80 2.1 E 13 19 7 10 1020.5 - 1.4
28/06:00pm 20.3 19.2 17.3 83 1.8 E 19 24 10 13 1020.2 1020.3 1.4
28/05:52pm 20.4 19.9 17.8 85 1.6 E 17 24 9 13 1020.2 - 1.4
28/05:34pm 20.5 19.9 17.6 83 1.8 ESE 17 24 9 13 1020.1 - 1.2
28/05:30pm 21.0 20.9 17.8 82 2.0 ESE 15 20 8 11 1020.1 - 0.4
28/05:00pm 22.8 23.3 16.5 67 3.8 E 9 15 5 8 1020.1 - 0.2
28/04:30pm 22.8 23.0 16.7 68 3.7 E 11 15 6 8 1020.5 - 0.2
28/04:00pm 22.7 23.2 16.6 68 3.7 E 9 13 5 7 1020.7 - 0.2
28/03:30pm 21.7 22.6 16.2 71 3.3 SE 6 11 3 6 1020.8 - 0.2
28/03:00pm 21.2 22.1 16.7 75 2.7 S 7 11 4 6 1021.2 1021.3 0.2
28/02:30pm 20.7 21.0 17.1 80 2.2 S 11 15 6 8 1021.5 - 0.2
28/02:00pm 20.6 20.1 17.0 80 2.2 S 15 20 8 11 1021.6 - 0.2
28/01:30pm 20.8 20.3 16.8 78 2.4 SSW 15 19 8 10 1021.8 - 0.2
28/01:00pm 20.3 19.6 17.3 83 1.8 S 17 22 9 12 1022.0 - 0.2
28/12:30pm 21.5 21.2 16.5 73 3.0 S 13 19 7 10 1022.2 - 0.2
28/12:00pm 21.6 21.0 16.6 73 3.0 WSW 15 19 8 10 1022.3 1022.4 0.2
28/11:30am 20.9 19.8 16.4 75 2.7 SSW 17 24 9 13 1022.4 - 0.2
28/11:00am 21.0 19.7 16.7 76 2.6 SSW 19 24 10 13 1022.5 - 0.0
28/10:38am 20.5 18.9 16.5 78 2.4 SSW 20 28 11 15 1022.5 - 0.0
28/10:28am 21.1 19.3 17.0 77 2.5 SSW 22 30 12 16 1022.4 - 0.0
28/10:15am 20.8 18.9 16.8 78 2.4 SSW 22 30 12 16 1022.3 - 0.0
28/10:00am 20.8 19.3 16.8 78 2.4 S 20 28 11 15 1022.3 - 0.0
28/09:47am 20.8 19.5 17.2 80 2.2 S 20 26 11 14 1022.3 - 0.0
28/09:30am 20.3 19.5 17.0 81 2.0 SW 17 22 9 12 1022.3 - 0.0
28/09:00am 20.5 19.0 16.7 79 2.3 SW 20 28 11 15 1022.1 1022.2 15.4
28/08:30am 20.1 18.6 16.4 79 2.2 SW 19 24 10 13 1021.8 - 15.4
28/08:00am 19.8 18.8 16.5 81 2.0 SW 17 26 9 14 1021.6 - 15.4
28/07:30am 20.0 18.2 16.1 78 2.3 SW 20 26 11 14 1021.4 - 15.4
28/07:00am 19.5 17.6 15.8 79 2.2 WSW 20 28 11 15 1021.1 - 15.4
28/06:30am 17.4 16.8 15.7 90 1.0 SW 13 15 7 8 1020.9 - 15.4
28/06:00am 16.8 16.2 15.6 93 0.7 SW 13 17 7 9 1020.6 1020.7 15.4
28/05:30am 16.8 16.1 15.4 91 0.8 SW 13 15 7 8 1020.3 - 15.4
28/05:00am 16.7 16.0 15.3 91 0.8 SW 13 15 7 8 1020.1 - 15.4
28/04:30am 16.8 16.9 15.4 91 0.8 SW 9 13 5 7 1019.8 - 15.4
28/04:00am 17.0 16.7 15.5 91 0.9 SW 11 13 6 7 1019.8 - 15.4
28/03:30am 17.0 16.8 15.8 93 0.7 SW 11 15 6 8 1020.0 - 15.4
28/03:00am 17.1 17.3 15.7 91 0.8 SW 9 11 5 6 1020.3 1020.4 15.4
28/02:30am 17.9 17.9 15.3 85 1.5 SW 9 13 5 7 1020.4 - 15.4
28/02:00am 18.3 17.9 15.2 82 1.8 SW 11 15 6 8 1020.5 - 15.4
28/01:30am 18.6 17.5 15.2 80 2.0 SW 15 17 8 9 1020.8 - 15.4
28/01:00am 18.8 18.1 15.4 80 2.0 SW 13 19 7 10 1021.0 - 15.4
28/12:30am 19.0 18.4 15.6 80 2.0 SSW 13 17 7 9 1021.1 - 15.4
28/12:00am 19.2 18.6 15.6 79 2.1 SSW 13 15 7 8 1021.0 1021.1 15.4
 
Date/Time
EDT
Temp
°C
App
Temp
°C
Dew
Point
Rel
Hum
%
Delta-T
°C
Wind Press
QNH
hPa
Press
MSL
hPa
Rain
since 9 am
mm
Dir
 
Spd
km/h
Gust
km/h
Spd
kts
Gust
kts
27/11:30pm 19.4 18.0 15.5 78 2.3 WSW 17 20 9 11 1021.2 - 15.4
27/11:00pm 19.4 19.2 15.7 79 2.2 SW 11 15 6 8 1021.3 - 15.4
27/10:30pm 19.8 18.5 15.9 78 2.3 SW 17 20 9 11 1021.3 - 15.4
27/10:00pm 20.2 18.5 15.8 76 2.6 SW 19 24 10 13 1021.2 - 15.4
27/09:30pm 20.3 18.5 15.9 76 2.6 SW 20 24 11 13 1021.0 - 15.4
27/09:00pm 20.4 19.4 16.6 79 2.3 SW 17 26 9 14 1020.7 1020.8 15.4
27/08:30pm 20.7 18.8 16.7 78 2.4 SSW 22 30 12 16 1020.5 - 15.4
27/08:00pm 21.0 18.3 16.7 76 2.6 SSW 26 32 14 17 1020.4 - 15.4
27/07:30pm 21.0 18.4 16.9 77 2.5 SSW 26 37 14 20 1020.0 - 15.4
27/07:00pm 21.2 18.7 16.2 73 3.0 SSW 24 32 13 17 1019.7 - 15.4
27/06:30pm 21.6 18.0 16.3 72 3.2 SSW 30 37 16 20 1019.4 - 15.4
27/06:00pm 22.2 19.5 17.5 74 2.9 S 28 35 15 19 1018.9 1019.0 15.4
27/05:30pm 21.8 19.2 17.9 78 2.4 S 28 35 15 19 1018.7 - 15.4
27/05:00pm 21.5 18.9 18.6 83 1.8 SSW 30 39 16 21 1018.4 - 15.4
27/04:30pm 21.9 19.1 19.0 83 1.8 S 32 41 17 22 1018.1 - 15.4
27/04:00pm 21.2 20.2 19.6 90 1.0 S 24 35 13 19 1018.2 - 15.4
27/03:54pm 21.0 20.4 19.7 92 0.8 S 22 28 12 15 1018.2 - 15.4
27/03:30pm 20.5 19.1 19.7 95 0.5 S 26 35 14 19 1018.3 - 14.6
27/03:00pm 20.3 18.1 19.5 95 0.5 SSW 30 35 16 19 1018.3 1018.4 11.8
27/02:30pm 20.1 17.4 19.3 95 0.5 SSE 32 46 17 25 1018.1 - 10.6
27/02:22pm 20.3 16.8 19.5 95 0.5 SSE 37 44 20 24 1018.1 - 6.0
27/02:17pm 21.7 19.5 20.3 92 0.9 S 32 56 17 30 1017.8 - 1.8
27/02:16pm 21.8 19.9 20.1 90 1.1 S 30 48 16 26 1017.9 - 1.4
27/02:00pm 23.7 23.6 20.0 80 2.4 S 20 28 11 15 1017.4 - 0.2
27/01:30pm 23.4 22.1 19.8 80 2.3 S 26 33 14 18 1017.6 - 0.2
27/01:00pm 23.9 21.4 19.7 77 2.7 S 32 41 17 22 1017.3 - 0.2
27/12:30pm 24.2 22.0 19.5 75 3.0 S 30 37 16 20 1017.5 - 0.2
27/12:00pm 24.4 22.4 19.1 72 3.4 S 28 35 15 19 1017.6 1017.7 0.0
27/11:30am 24.5 23.0 19.5 73 3.2 S 26 33 14 18 1017.6 - 0.0
27/11:00am 24.0 22.8 20.1 79 2.5 S 26 33 14 18 1017.7 - 0.0
27/10:29am 21.9 21.6 19.5 86 1.5 S 20 28 11 15 1017.6 - 0.0
27/09:57am 22.0 22.5 20.1 89 1.2 S 17 24 9 13 1017.7 - 0.0
27/09:30am 22.4 23.9 19.7 85 1.7 SW 11 17 6 9 1017.6 - 0.0
27/09:16am 21.7 23.2 19.8 89 1.2 SW 11 15 6 8 1017.6 - 0.0
27/09:00am 21.4 22.4 19.5 89 1.2 SW 13 19 7 10 1017.7 1017.8 1.8
27/08:30am 21.9 22.9 19.4 86 1.6 SW 13 20 7 11 1017.5 - 1.8
27/08:00am 21.3 22.0 19.7 91 1.0 SW 15 19 8 10 1017.4 - 1.8
27/07:30am 20.9 20.7 19.8 93 0.7 SW 20 28 11 15 1016.7 - 1.8
27/07:00am 20.4 21.9 19.8 96 0.4 SW 11 15 6 8 1015.9 - 1.8
27/06:49am 20.4 22.1 20.1 98 0.2 WSW 11 15 6 8 1015.6 - 1.8
27/06:30am 20.1 21.5 19.5 96 0.4 WSW 11 13 6 7 1015.3 - 1.8
27/06:00am 19.2 20.6 18.7 97 0.3 WSW 9 13 5 7 1015.0 1015.1 1.8
27/05:43am 18.9 21.5 18.4 97 0.3 W 2 7 1 4 1014.9 - 1.8
27/05:34am 19.0 20.7 18.5 97 0.3 W 7 9 4 5 1014.9 - 1.8
27/05:30am 19.0 20.8 18.7 98 0.2 W 7 9 4 5 1014.9 - 1.8
27/05:26am 19.0 20.3 18.5 97 0.3 W 9 9 5 5 1014.9 - 1.8
27/05:00am 18.9 22.0 18.6 98 0.2 CALM 0 0 0 0 1014.9 - 1.8
27/04:48am 19.0 22.0 18.5 97 0.3 CALM 0 0 0 0 1014.8 - 1.8
27/04:39am 18.9 21.9 18.4 97 0.3 CALM 0 0 0 0 1014.9 - 1.8
27/04:30am 18.8 21.7 18.3 97 0.3 CALM 0 0 0 0 1014.9 - 1.8
27/04:13am 18.6 21.5 18.1 97 0.3 CALM 0 0 0 0 1014.9 - 1.8
27/04:08am 18.6 21.5 18.1 97 0.3 CALM 0 0 0 0 1014.9 - 1.8
27/04:07am 18.6 21.5 18.1 97 0.3 CALM 0 0 0 0 1014.9 - 1.8
27/04:00am 18.6 21.5 18.1 97 0.3 CALM 0 0 0 0 1015.0 - 1.8
27/03:30am 18.9 21.9 18.4 97 0.3 CALM 0 0 0 0 1015.1 - 1.8
27/03:16am 18.6 21.5 18.1 97 0.3 CALM 0 0 0 0 1015.1 - 1.8
27/03:00am 18.7 21.6 18.2 97 0.3 CALM 0 0 0 0 1014.9 1015.0 1.8
27/02:30am 18.8 21.8 18.5 98 0.2 CALM 0 0 0 0 1014.9 - 1.8
27/02:18am 18.8 21.7 18.3 97 0.3 CALM 0 0 0 0 1015.2 - 1.8
27/02:00am 19.0 20.9 18.5 97 0.3 SSW 6 9 3 5 1015.2 - 1.6
27/01:51am 19.1 22.2 18.6 97 0.3 CALM 0 7 0 4 1015.3 - 1.6
27/01:30am 18.9 21.6 18.6 98 0.2 SSE 2 9 1 5 1015.5 - 1.6
27/01:00am 19.4 22.6 18.9 97 0.3 CALM 0 0 0 0 1016.0 - 1.6
27/12:30am 19.7 23.0 19.1 96 0.4 CALM 0 0 0 0 1016.5 - 1.6
27/12:00am 19.9 23.3 19.4 97 0.3 CALM 0 0 0 0 1016.7 1016.8 1.6
 
Date/Time
EDT
Temp
°C
App
Temp
°C
Dew
Point
Rel
Hum
%
Delta-T
°C
Wind Press
QNH
hPa
Press
MSL
hPa
Rain
since 9 am
mm
Dir
 
Spd
km/h
Gust
km/h
Spd
kts
Gust
kts
26/11:30pm 20.2 23.8 19.7 97 0.3 CALM 0 0 0 0 1017.1 - 1.6
26/11:00pm 20.3 23.9 19.8 97 0.3 CALM 0 0 0 0 1017.4 - 1.6
26/10:30pm 20.3 23.9 19.8 97 0.3 CALM 0 0 0 0 1017.4 - 1.6
26/10:00pm 20.3 23.9 19.8 97 0.3 CALM 0 0 0 0 1017.2 - 1.6
26/09:30pm 20.4 24.0 19.8 96 0.4 CALM 0 0 0 0 1016.9 - 1.6
26/09:00pm 20.6 24.3 20.0 96 0.4 CALM 0 0 0 0 1016.8 1016.9 1.6
26/08:30pm 20.8 24.2 20.2 96 0.4 S 2 7 1 4 1016.9 - 1.6
26/08:28pm 20.8 23.9 20.2 96 0.4 S 4 7 2 4 1016.9 - 1.6
26/08:13pm 20.9 23.9 20.1 95 0.5 WSW 4 9 2 5 1016.9 - 1.6
26/08:00pm 21.0 24.8 20.2 95 0.5 CALM 0 0 0 0 1016.9 - 1.6
26/07:30pm 21.4 25.4 20.5 95 0.6 CALM 0 0 0 0 1016.9 - 1.6

Other Formats:

Comma delimited format used in spreadsheet applications
http://www.bom.gov.au/fwo/IDN60801/IDN60801.94791.axf

JavaScript Object Notation format (JSON) in row-major order
http://www.bom.gov.au/fwo/IDN60801/IDN60801.94791.json